createdAt,value
2024-03-27T00:00:50.294Z,66.03
2024-03-27T00:06:25.494Z,66.10
2024-03-27T00:11:41.171Z,66.35
2024-03-27T00:16:49.726Z,66.54
2024-03-27T00:22:00.541Z,66.66
2024-03-27T00:27:19.035Z,66.66
2024-03-27T00:32:27.061Z,67.10
2024-03-27T00:37:40.575Z,67.07
2024-03-27T00:43:06.835Z,67.39
2024-03-27T00:48:12.147Z,67.60
2024-03-27T00:53:20.415Z,67.60
2024-03-27T00:58:38.810Z,67.82
2024-03-27T01:03:54.963Z,67.93
2024-03-27T01:09:20.236Z,68.01
2024-03-27T01:14:45.846Z,68.15
2024-03-27T01:19:53.336Z,68.29
2024-03-27T01:25:12.498Z,68.42
2024-03-27T01:30:37.989Z,68.61
2024-03-27T01:35:50.224Z,68.82
2024-03-27T01:40:58.090Z,69.01
2024-03-27T01:46:10.197Z,69.09
2024-03-27T01:51:16.986Z,69.21
2024-03-27T01:56:34.950Z,69.48
2024-03-27T02:02:00.727Z,69.81
2024-03-27T02:07:09.425Z,70.19
2024-03-27T02:12:19.620Z,70.40
2024-03-27T02:17:26.962Z,70.51
2024-03-27T02:22:40.858Z,70.98
2024-03-27T02:27:48.916Z,71.11
2024-03-27T02:33:14.317Z,71.23
2024-03-27T02:38:29.430Z,71.78
2024-03-27T02:43:36.845Z,71.78
2024-03-27T02:48:51.956Z,72.30
2024-03-27T02:54:17.199Z,72.11
2024-03-27T02:59:25.276Z,72.54
2024-03-27T03:04:40.462Z,72.62
2024-03-27T03:09:59.454Z,72.89
2024-03-27T03:15:17.694Z,73.24
2024-03-27T03:20:42.927Z,73.10
2024-03-27T03:25:58.280Z,73.34
2024-03-27T03:31:09.109Z,73.32
2024-03-27T03:36:24.217Z,73.15
2024-03-27T03:41:49.551Z,73.47
2024-03-27T03:47:04.737Z,73.39
2024-03-27T03:52:28.357Z,73.38
2024-03-27T03:57:53.569Z,73.51
2024-03-27T04:03:18.791Z,73.56
2024-03-27T04:08:36.841Z,73.55
2024-03-27T04:14:02.053Z,73.57
2024-03-27T04:19:27.339Z,73.32
2024-03-27T04:24:52.561Z,73.49
2024-03-27T04:30:05.791Z,73.23
2024-03-27T04:35:25.479Z,73.14
2024-03-27T04:40:51.068Z,73.14
2024-03-27T04:46:16.297Z,73.25
2024-03-27T04:51:34.002Z,73.34
2024-03-27T04:56:50.074Z,72.98
2024-03-27T05:01:55.190Z,72.80
2024-03-27T05:07:05.566Z,73.22
2024-03-27T05:12:31.036Z,73.02
2024-03-27T05:17:39.041Z,73.28
2024-03-27T05:22:47.432Z,73.16
2024-03-27T05:28:01.828Z,73.22
2024-03-27T05:33:19.492Z,73.37
2024-03-27T05:38:44.756Z,73.48
2024-03-27T05:43:49.922Z,73.14
2024-03-27T05:49:17.740Z,73.17
2024-03-27T05:54:42.978Z,72.94
2024-03-27T06:00:08.224Z,72.82
2024-03-27T06:05:33.608Z,72.72
2024-03-27T06:10:58.832Z,72.57
2024-03-27T06:16:17.106Z,72.55
2024-03-27T06:21:42.380Z,72.31
2024-03-27T06:27:07.626Z,72.07
2024-03-27T06:32:33.224Z,71.82
2024-03-27T06:37:58.611Z,71.52
2024-03-27T06:43:24.017Z,71.33
2024-03-27T06:48:49.322Z,70.44
2024-03-27T06:54:14.621Z,69.70
2024-03-27T06:59:32.600Z,69.27
2024-03-27T07:04:58.181Z,69.19
2024-03-27T07:10:08.399Z,67.77
2024-03-27T07:15:34.028Z,67.07
2024-03-27T07:20:59.276Z,65.38
2024-03-27T07:26:30.009Z,65.95
2024-03-27T07:31:55.453Z,64.66
2024-03-27T07:37:20.769Z,64.31
2024-03-27T07:42:26.055Z,62.73
2024-03-27T07:47:41.266Z,61.58
2024-03-27T07:53:06.571Z,61.27
2024-03-27T07:58:16.448Z,60.72
2024-03-27T08:03:31.686Z,60.01
2024-03-27T08:08:57.101Z,60.49
2024-03-27T08:14:26.465Z,58.50
2024-03-27T08:19:41.563Z,58.89
2024-03-27T08:24:46.829Z,57.15
2024-03-27T08:30:12.134Z,56.78
2024-03-27T08:35:37.732Z,56.54
2024-03-27T08:40:56.927Z,55.13
2024-03-27T08:46:23.241Z,55.58
2024-03-27T08:51:40.270Z,55.47
2024-03-27T08:56:48.604Z,54.52
2024-03-27T09:02:13.840Z,54.93
2024-03-27T09:07:37.763Z,53.80
2024-03-27T09:13:03.137Z,54.14
2024-03-27T09:18:18.563Z,53.34
2024-03-27T09:23:27.638Z,53.08
2024-03-27T09:28:43.344Z,51.92
2024-03-27T09:33:51.502Z,51.02
2024-03-27T09:39:01.695Z,51.13
2024-03-27T09:44:31.823Z,50.17
2024-03-27T09:49:44.451Z,49.98
2024-03-27T09:54:53.034Z,50.51
2024-03-27T10:00:18.334Z,50.03
2024-03-27T10:05:47.067Z,50.22
2024-03-27T10:10:57.978Z,48.36
2024-03-27T10:16:06.896Z,47.97
2024-03-27T10:21:17.267Z,46.40
2024-03-27T10:26:25.368Z,47.23
2024-03-27T10:31:35.373Z,47.20
2024-03-27T10:36:42.851Z,46.93
2024-03-27T10:41:50.975Z,47.10
2024-03-27T10:47:16.250Z,47.76
2024-03-27T10:52:42.972Z,46.96
2024-03-27T10:58:08.451Z,47.23
2024-03-27T11:03:36.944Z,46.68
2024-03-27T11:09:05.440Z,46.30
2024-03-27T11:14:38.097Z,46.65
2024-03-27T11:20:05.093Z,45.83
2024-03-27T11:25:33.550Z,45.29
2024-03-27T11:31:01.172Z,45.41
2024-03-27T11:36:27.181Z,45.01
2024-03-27T11:41:52.471Z,44.39
2024-03-27T11:47:17.801Z,45.85
2024-03-27T11:52:43.543Z,44.99
2024-03-27T11:57:48.983Z,43.96
2024-03-27T12:03:14.569Z,44.31
2024-03-27T12:08:40.049Z,45.54
2024-03-27T12:14:05.504Z,45.15
2024-03-27T12:19:30.873Z,44.94
2024-03-27T12:24:55.882Z,43.64
2024-03-27T12:30:21.792Z,42.99
2024-03-27T12:35:39.435Z,44.72
2024-03-27T12:40:57.176Z,44.05
2024-03-27T12:46:22.718Z,43.94
2024-03-27T12:51:47.960Z,43.86
2024-03-27T12:57:14.464Z,44.37
2024-03-27T13:02:39.741Z,44.18
2024-03-27T13:07:44.998Z,44.56
2024-03-27T13:13:10.630Z,43.89
2024-03-27T13:18:28.545Z,44.74
2024-03-27T13:23:37.723Z,44.79
2024-03-27T13:29:02.981Z,44.91
2024-03-27T13:34:10.666Z,44.97
2024-03-27T13:39:36.024Z,44.63
2024-03-27T13:44:41.320Z,44.72
2024-03-27T13:50:06.563Z,44.61
2024-03-27T13:55:12.135Z,45.24
2024-03-27T14:00:38.192Z,45.23
2024-03-27T14:06:03.433Z,45.08
2024-03-27T14:11:28.898Z,45.29
2024-03-27T14:16:54.463Z,45.23
2024-03-27T14:22:12.481Z,44.87
2024-03-27T14:27:20.097Z,44.52
2024-03-27T14:32:45.429Z,45.06
2024-03-27T14:37:53.008Z,45.62
2024-03-27T14:42:58.275Z,45.46
2024-03-27T14:48:05.813Z,45.48
2024-03-27T14:53:10.928Z,45.32
2024-03-27T14:58:29.224Z,45.59
2024-03-27T15:03:54.709Z,45.70
2024-03-27T15:08:59.924Z,45.70
2024-03-27T15:14:05.154Z,46.24
2024-03-27T15:19:13.371Z,46.29
2024-03-27T15:24:21.178Z,46.51
2024-03-27T15:29:26.478Z,46.90
2024-03-27T15:34:53.080Z,46.87
2024-03-27T15:40:01.361Z,47.70
2024-03-27T15:45:10.175Z,47.52
2024-03-27T15:50:28.614Z,47.48
2024-03-27T15:55:44.902Z,47.64
2024-03-27T16:01:01.379Z,47.48
2024-03-27T16:06:10.067Z,47.60
2024-03-27T16:11:35.329Z,47.35
2024-03-27T16:16:43.024Z,47.55
2024-03-27T16:21:50.601Z,48.19
2024-03-27T16:26:58.261Z,48.37
2024-03-27T16:32:07.100Z,48.73
2024-03-27T16:37:15.584Z,49.32
2024-03-27T16:42:23.561Z,49.15
2024-03-27T16:47:48.811Z,49.48
2024-03-27T16:52:56.100Z,49.95
2024-03-27T16:58:21.363Z,50.48
2024-03-27T17:03:28.474Z,50.74
2024-03-27T17:08:36.191Z,51.25
2024-03-27T17:13:50.198Z,51.54
2024-03-27T17:19:15.467Z,52.14
2024-03-27T17:24:41.405Z,52.49
2024-03-27T17:29:49.514Z,53.07
2024-03-27T17:35:14.913Z,53.51
2024-03-27T17:40:20.351Z,54.21
2024-03-27T17:45:45.640Z,54.96
2024-03-27T17:51:10.848Z,55.61
2024-03-27T17:56:36.150Z,56.31
2024-03-27T18:02:01.479Z,57.03
2024-03-27T18:07:27.010Z,57.70
2024-03-27T18:12:44.844Z,58.47
2024-03-27T18:18:10.067Z,59.16
2024-03-27T18:23:35.307Z,59.64
2024-03-27T18:29:00.707Z,60.18
2024-03-27T18:34:25.961Z,60.84
2024-03-27T18:39:51.759Z,61.39
2024-03-27T18:45:20.795Z,61.99
2024-03-27T18:50:29.726Z,62.50
2024-03-27T18:55:55.905Z,63.17
2024-03-27T19:01:21.762Z,63.68
2024-03-27T19:06:47.831Z,64.19
2024-03-27T19:12:13.139Z,64.55
2024-03-27T19:17:38.648Z,65.02
2024-03-27T19:23:03.953Z,65.36
2024-03-27T19:28:14.655Z,65.85
2024-03-27T19:33:29.123Z,66.07
2024-03-27T19:38:55.148Z,66.46
2024-03-27T19:44:11.379Z,66.80
2024-03-27T19:49:36.669Z,67.00
2024-03-27T19:55:02.014Z,67.49
2024-03-27T20:00:29.361Z,67.86
2024-03-27T20:05:54.974Z,68.20
2024-03-27T20:11:21.710Z,68.62
2024-03-27T20:16:47.302Z,68.92
2024-03-27T20:22:12.631Z,69.32
2024-03-27T20:27:18.986Z,69.57
2024-03-27T20:32:45.419Z,69.69
2024-03-27T20:38:00.420Z,70.04
2024-03-27T20:43:06.543Z,70.47
2024-03-27T20:48:32.667Z,70.84
2024-03-27T20:53:57.863Z,71.30
2024-03-27T20:59:23.141Z,71.72
2024-03-27T21:04:48.403Z,72.06
2024-03-27T21:10:17.160Z,72.52
2024-03-27T21:15:33.024Z,72.93
2024-03-27T21:20:59.017Z,73.47
2024-03-27T21:26:06.705Z,74.07
2024-03-27T21:31:21.355Z,74.63
2024-03-27T21:36:46.700Z,75.17
2024-03-27T21:41:55.009Z,75.04
2024-03-27T21:47:00.075Z,75.01
2024-03-27T21:52:25.627Z,75.29
2024-03-27T21:57:50.920Z,76.02
2024-03-27T22:03:07.704Z,76.04
2024-03-27T22:08:32.993Z,76.64
2024-03-27T22:13:58.277Z,76.57
2024-03-27T22:19:23.553Z,76.61
2024-03-27T22:24:48.801Z,76.85
2024-03-27T22:30:14.060Z,77.14
2024-03-27T22:35:29.564Z,77.38
2024-03-27T22:40:47.530Z,77.46
2024-03-27T22:46:00.143Z,78.00
2024-03-27T22:51:09.131Z,78.46
2024-03-27T22:56:39.919Z,78.80
2024-03-27T23:02:01.690Z,79.07
2024-03-27T23:07:20.351Z,79.23
2024-03-27T23:12:44.313Z,79.46
2024-03-27T23:18:09.585Z,79.55
2024-03-27T23:23:17.706Z,80.17
2024-03-27T23:28:43.011Z,81.02
2024-03-27T23:34:00.967Z,81.84
2024-03-27T23:39:26.341Z,81.79
2024-03-27T23:44:51.599Z,81.84
2024-03-27T23:50:16.912Z,82.37
2024-03-27T23:55:42.170Z,83.11
